Detall de PIREP

Printer-friendly versionPDF version

[2011/06/03 20:25:00]
Flight IATA:CT3235
Pilot Number:037
Company ICAO:CAT
Aircraft Type:B763/F
PAX:95
Departing Airport: LFPG
Destination Airport: LEPA
Alternate Airport:LEBL
Online: VATSIM
Route:ERIXU UN860 ETAMO UN855 PPG UP84 LORES
Flight Level:F350
No Slew and time accel
No pause
Crash detect
Detect pilot in Cockpit between each 30 and 45 minutes
20:25 Zero fuel Weight: 280620 Lbs, Fuel Weight: 41481 Lbs
20:25 VATSIM:LFPG 032000Z 02009KT CAVOK 24/10 Q1020 NOSIG
20:25 VATSIM:LEPA 032000Z VRB01KT 9999 FEW016 FEW025TCU 15/14 Q1017 NOSIG
20:52 Take-off
20:52 Take off Weight: 320411 Lbs
20:52 Wind: 021º @ 009 Knots Heading: 083º
20:52 POS N48º 59´ 50´´ E002º 34´ 54´´
20:52 Gear Up: 174 Knots
20:52 Flaps:3 at 174 Knots
20:52 Flaps:2 at 194 Knots
20:52 Flaps:1 at 210 Knots
20:53 Flaps:0 at 219 Knots
21:08 Wind:030º@023 Knots Heading: 167º Ground Speed: 369 Knots Altitude 32942 ft
21:08 TOC
21:08 Fuel Weight: 33424 Lb
21:23 Wind:053º@014 Knots Heading: 156º Ground Speed: 492 Knots Altitude 35177 ft
21:38 Wind:047º@002 Knots Heading: 179º Ground Speed: 485 Knots Altitude 35193 ft
21:53 Wind:141º@000 Knots Heading: 184º Ground Speed: 482 Knots Altitude 35144 ft
21:58 TOD
21:58 Fuel Weight: 23625 Lb
22:08 Wind:069º@003 Knots Heading: 150º Ground Speed: 382 Knots Altitude 25531 ft
22:18 Flaps:1 at 214 Knots
22:18 Flaps:2 at 179 Knots
22:19 Gear Down: 176 Knots
22:19 Flaps:3 at 188 Knots
22:19 Flaps:4 at 191 Knots
22:20 Flaps:5 at 183 Knots
22:20 Flaps:4 at 175 Knots
22:20 Flaps:3 at 173 Knots
22:23 Wind:349º@000 Knots Heading: 061º Ground Speed: 178 Knots Altitude 2575 ft
22:24 Flaps:4 at 159 Knots
22:24 Flaps:5 at 166 Knots
22:25 Flaps:4 at 172 Knots
22:25 Flaps:6 at 173 Knots
22:26 TouchDown:Rate -263 ft/min Speed: 135 Knots
22:26 VATSIM:LEPA 032200Z 00000KT 9999 FEW018 FEW025TCU 14/13 Q1018 NOSIG
22:26 Land
22:26 Wind:351º@000 Knots
22:26 Heading: 238º
22:26 Flight Duration: 01:34
22:26 Landing Weight: 300368 Lbs
22:26 POS N39º 32´ 45´´ E002º 44´ 29´´
22:28 Parking brakes on
22:28 Block to Block Duration: 01:36
22:28 Final Fuel: 19424 Lbls
22:28 Spent Fuel: 22056 Lbls
22:28 Flight Length: 472 NM
22:28 TOD Land Length: 99 NM

Exportar CSV

Powered by Drupal - Modified by Danger4k